createdAt,value
2018-11-23T00:00:03.132Z,59.03
2018-11-23T00:01:03.140Z,58.84
2018-11-23T00:02:03.146Z,58.84
2018-11-23T00:03:03.154Z,58.75
2018-11-23T00:04:03.160Z,58.84
2018-11-23T00:05:03.172Z,58.75
2018-11-23T00:06:03.175Z,58.75
2018-11-23T00:07:03.184Z,58.84
2018-11-23T00:08:03.197Z,58.84
2018-11-23T00:09:03.199Z,59.50
2018-11-23T00:10:03.208Z,59.12
2018-11-23T00:11:03.219Z,59.12
2018-11-23T00:12:03.222Z,59.31
2018-11-23T00:13:03.232Z,59.09
2018-11-23T00:14:03.240Z,59.03
2018-11-23T00:15:03.246Z,58.84
2018-11-23T00:16:03.254Z,58.94
2018-11-23T00:17:03.260Z,59.03
2018-11-23T00:18:03.274Z,58.72
2018-11-23T00:19:03.285Z,58.75
2018-11-23T00:20:03.288Z,58.65
2018-11-23T00:21:03.294Z,58.75
2018-11-23T00:22:03.301Z,59.09
2018-11-23T00:23:03.308Z,58.94
2018-11-23T00:24:03.317Z,58.91
2018-11-23T00:25:03.327Z,58.75
2018-11-23T00:26:03.330Z,59.03
2018-11-23T00:27:03.337Z,58.75
2018-11-23T00:28:03.346Z,59.03
2018-11-23T00:29:03.353Z,58.75
2018-11-23T00:30:03.364Z,59.31
2018-11-23T00:31:03.375Z,59.28
2018-11-23T00:32:03.376Z,59.28
2018-11-23T00:33:03.384Z,59.28
2018-11-23T00:34:03.392Z,59.09
2018-11-23T00:35:03.404Z,59.09
2018-11-23T00:36:03.408Z,59.66
2018-11-23T00:37:03.415Z,59.19
2018-11-23T00:38:03.423Z,59.47
2018-11-23T00:39:03.430Z,59.47
2018-11-23T00:40:03.437Z,59.57
2018-11-23T00:41:03.445Z,59.47
2018-11-23T00:42:03.454Z,59.76
2018-11-23T00:43:03.459Z,59.28
2018-11-23T00:44:03.467Z,59.09
2018-11-23T00:45:03.476Z,58.81
2018-11-23T00:46:03.483Z,58.25
2018-11-23T00:47:03.497Z,58.06
2018-11-23T00:48:03.501Z,57.87
2018-11-23T00:49:03.504Z,58.47
2018-11-23T00:50:03.513Z,58.06
2018-11-23T00:51:03.522Z,58.37
2018-11-23T00:52:03.529Z,57.90
2018-11-23T00:53:03.538Z,58.44
2018-11-23T00:54:03.543Z,58.18
2018-11-23T00:55:03.552Z,57.90
2018-11-23T00:56:03.560Z,57.96
2018-11-23T00:57:03.569Z,57.96
2018-11-23T00:58:03.576Z,58.28
2018-11-23T00:59:03.582Z,58.37
2018-11-23T01:00:03.589Z,58.37
2018-11-23T01:01:03.600Z,57.99
2018-11-23T01:02:03.608Z,58.37
2018-11-23T01:03:03.613Z,58.28
2018-11-23T01:04:03.617Z,58.37
2018-11-23T01:05:03.628Z,58.65
2018-11-23T01:06:03.634Z,57.99
2018-11-23T01:07:03.644Z,57.61
2018-11-23T01:08:03.646Z,57.99
2018-11-23T01:09:03.656Z,57.42
2018-11-23T01:10:03.663Z,57.90
2018-11-23T01:11:03.671Z,57.71
2018-11-23T01:12:03.679Z,57.52
2018-11-23T01:13:03.685Z,57.42
2018-11-23T01:14:03.694Z,57.33
2018-11-23T01:15:03.703Z,57.52
2018-11-23T01:16:03.710Z,57.80
2018-11-23T01:17:03.715Z,58.18
2018-11-23T01:18:03.726Z,58.18
2018-11-23T01:19:03.732Z,58.06
2018-11-23T01:20:03.740Z,57.87
2018-11-23T01:21:03.747Z,57.87
2018-11-23T01:22:03.764Z,58.25
2018-11-23T01:23:03.763Z,58.15
2018-11-23T01:24:03.774Z,58.62
2018-11-23T01:25:03.783Z,58.15
2018-11-23T01:26:03.785Z,57.87
2018-11-23T01:27:03.792Z,57.96
2018-11-23T01:28:03.802Z,58.15
2018-11-23T01:29:03.807Z,57.58
2018-11-23T01:30:03.816Z,57.77
2018-11-23T01:31:03.824Z,57.49
2018-11-23T01:32:03.830Z,57.87
2018-11-23T01:33:03.837Z,57.68
2018-11-23T01:34:03.849Z,58.06
2018-11-23T01:35:03.860Z,58.44
2018-11-23T01:36:03.860Z,58.34
2018-11-23T01:37:03.870Z,58.25
2018-11-23T01:38:03.876Z,58.62
2018-11-23T01:39:03.887Z,58.06
2018-11-23T01:40:03.892Z,58.15
2018-11-23T01:41:03.897Z,58.53
2018-11-23T01:42:03.908Z,58.53
2018-11-23T01:43:03.923Z,58.06
2018-11-23T01:44:03.921Z,58.15
2018-11-23T01:45:03.935Z,58.06
2018-11-23T01:46:03.937Z,58.53
2018-11-23T01:47:03.945Z,58.53
2018-11-23T01:48:03.952Z,58.44
2018-11-23T01:49:03.958Z,58.62
2018-11-23T01:50:03.969Z,58.44
2018-11-23T01:51:03.975Z,58.53
2018-11-23T01:52:03.994Z,58.53
2018-11-23T01:53:03.990Z,57.96
2018-11-23T01:54:03.998Z,57.96
2018-11-23T01:55:04.006Z,58.53
2018-11-23T01:56:04.011Z,58.53
2018-11-23T01:57:04.019Z,58.53
2018-11-23T01:58:04.031Z,58.53
2018-11-23T01:59:04.035Z,57.87
2018-11-23T02:00:04.043Z,57.96
2018-11-23T02:01:04.051Z,58.06
2018-11-23T02:02:04.064Z,57.96
2018-11-23T02:03:04.063Z,58.15
2018-11-23T02:04:04.072Z,57.96
2018-11-23T02:05:04.081Z,58.25
2018-11-23T02:06:04.087Z,58.62
2018-11-23T02:07:04.092Z,58.34
2018-11-23T02:08:04.101Z,58.15
2018-11-23T02:09:04.107Z,58.34
2018-11-23T02:10:04.118Z,57.58
2018-11-23T02:11:04.123Z,58.25
2018-11-23T02:12:04.131Z,58.25
2018-11-23T02:13:04.146Z,58.15
2018-11-23T02:14:04.145Z,58.53
2018-11-23T02:15:04.153Z,58.81
2018-11-23T02:16:04.158Z,59.28
2018-11-23T02:17:04.169Z,59.38
2018-11-23T02:18:04.174Z,59.28
2018-11-23T02:19:04.184Z,59.28
2018-11-23T02:20:04.188Z,58.91
2018-11-23T02:21:04.197Z,58.91
2018-11-23T02:22:04.203Z,58.44
2018-11-23T02:23:04.211Z,57.77
2018-11-23T02:24:04.217Z,58.44
2018-11-23T02:25:04.225Z,57.68
2018-11-23T02:26:04.232Z,57.77
2018-11-23T02:27:04.240Z,57.58
2018-11-23T02:28:04.247Z,57.87
2018-11-23T02:29:04.254Z,57.77
2018-11-23T02:30:04.264Z,57.68
2018-11-23T02:31:04.270Z,57.49
2018-11-23T02:32:04.301Z,57.96
2018-11-23T02:33:04.349Z,58.15
2018-11-23T02:34:04.380Z,57.87
2018-11-23T02:35:04.358Z,57.96
2018-11-23T02:36:04.305Z,57.87
2018-11-23T02:37:04.314Z,57.87
2018-11-23T02:38:04.321Z,57.77
2018-11-23T02:39:04.329Z,57.77
2018-11-23T02:40:04.335Z,57.68
2018-11-23T02:41:04.342Z,57.49
2018-11-23T02:42:04.349Z,57.68
2018-11-23T02:43:04.357Z,57.87
2018-11-23T02:44:04.364Z,57.87
2018-11-23T02:45:04.374Z,58.15
2018-11-23T02:46:04.378Z,57.49
2018-11-23T02:47:04.388Z,57.87
2018-11-23T02:48:04.394Z,58.15
2018-11-23T02:49:04.398Z,57.58
2018-11-23T02:50:04.408Z,57.58
2018-11-23T02:51:04.418Z,57.87
2018-11-23T02:52:04.426Z,58.15
2018-11-23T02:53:04.428Z,57.68
2018-11-23T02:54:04.437Z,57.39
2018-11-23T02:55:04.447Z,57.58
2018-11-23T02:56:04.451Z,57.49
2018-11-23T02:57:04.458Z,57.01
2018-11-23T02:58:04.465Z,56.45
2018-11-23T02:59:04.473Z,56.54
2018-11-23T03:00:04.483Z,55.88
2018-11-23T03:01:04.492Z,55.69
2018-11-23T03:02:04.493Z,55.88
2018-11-23T03:03:04.499Z,55.31
2018-11-23T03:04:04.507Z,55.22
2018-11-23T03:05:04.517Z,55.03
2018-11-23T03:06:04.522Z,55.22
2018-11-23T03:07:04.533Z,54.46
2018-11-23T03:08:04.540Z,55.31
2018-11-23T03:09:04.544Z,55.12
2018-11-23T03:10:04.554Z,55.60
2018-11-23T03:11:04.559Z,56.26
2018-11-23T03:12:04.566Z,57.01
2018-11-23T03:13:04.570Z,57.20
2018-11-23T03:14:04.578Z,57.87
2018-11-23T03:15:04.585Z,58.25
2018-11-23T03:16:04.596Z,58.06
2018-11-23T03:17:04.599Z,58.15
2018-11-23T03:18:04.608Z,58.15
2018-11-23T03:19:04.615Z,58.62
2018-11-23T03:20:04.624Z,57.68
2018-11-23T03:21:04.627Z,57.39
2018-11-23T03:22:04.634Z,57.20
2018-11-23T03:23:04.643Z,57.11
2018-11-23T03:24:04.647Z,56.73
2018-11-23T03:25:04.655Z,56.35
2018-11-23T03:26:04.665Z,56.45
2018-11-23T03:27:04.671Z,56.26
2018-11-23T03:28:04.700Z,56.45
2018-11-23T03:29:04.683Z,56.07
2018-11-23T03:30:04.691Z,56.07
2018-11-23T03:31:12.012Z,55.69
2018-11-23T03:32:04.705Z,55.50
2018-11-23T03:33:04.713Z,55.98
2018-11-23T03:34:04.718Z,55.22
2018-11-23T03:35:04.723Z,55.41
2018-11-23T03:36:04.732Z,55.60
2018-11-23T03:37:04.738Z,55.98
2018-11-23T03:38:04.746Z,55.69
2018-11-23T03:39:04.752Z,56.07
2018-11-23T03:40:04.765Z,55.88
2018-11-23T03:41:04.770Z,55.79
2018-11-23T03:42:04.778Z,55.98
2018-11-23T03:43:04.780Z,55.79
2018-11-23T03:44:04.787Z,56.07
2018-11-23T03:45:04.798Z,56.35
2018-11-23T03:46:04.801Z,56.73
2018-11-23T03:47:04.807Z,56.92
2018-11-23T03:48:04.813Z,56.73
2018-11-23T03:49:04.822Z,56.73
2018-11-23T03:50:04.829Z,56.16
2018-11-23T03:51:04.837Z,56.26
2018-11-23T03:52:04.842Z,56.07
2018-11-23T03:53:04.851Z,56.45
2018-11-23T03:54:04.858Z,56.73
2018-11-23T03:55:04.867Z,56.73
2018-11-23T03:56:04.878Z,56.63
2018-11-23T03:57:04.875Z,56.35
2018-11-23T03:58:04.884Z,56.45
2018-11-23T03:59:04.894Z,56.26
2018-11-23T04:00:04.900Z,56.82
2018-11-23T04:01:04.910Z,57.20
2018-11-23T04:02:04.914Z,57.11
2018-11-23T04:03:04.922Z,57.39
2018-11-23T04:04:04.924Z,57.39
2018-11-23T04:05:04.934Z,57.01
2018-11-23T04:06:04.940Z,56.07
2018-11-23T04:07:04.948Z,56.35
2018-11-23T04:08:04.952Z,56.26
2018-11-23T04:09:04.960Z,56.16
2018-11-23T04:10:04.972Z,56.26
2018-11-23T04:11:04.976Z,56.16
2018-11-23T04:12:04.980Z,56.07
2018-11-23T04:13:04.990Z,56.45
2018-11-23T04:14:04.993Z,56.45
2018-11-23T04:15:05.001Z,56.54
2018-11-23T04:16:05.011Z,56.35
2018-11-23T04:17:05.015Z,56.45
2018-11-23T04:18:05.020Z,56.73
2018-11-23T04:19:05.032Z,56.16
2018-11-23T04:20:05.036Z,56.26
2018-11-23T04:21:05.044Z,56.35
2018-11-23T04:22:05.051Z,56.45
2018-11-23T04:23:05.059Z,56.54
2018-11-23T04:24:05.063Z,56.07
2018-11-23T04:25:05.074Z,55.60
2018-11-23T04:26:05.078Z,56.07
2018-11-23T04:27:05.088Z,55.60
2018-11-23T04:28:05.093Z,55.69
2018-11-23T04:29:05.097Z,55.31
2018-11-23T04:30:05.104Z,55.41
2018-11-23T04:31:05.112Z,55.69
2018-11-23T04:32:05.119Z,55.69
2018-11-23T04:33:05.129Z,55.98
2018-11-23T04:34:05.131Z,55.88
2018-11-23T04:35:05.142Z,55.69
2018-11-23T04:36:05.148Z,56.07
2018-11-23T04:37:05.154Z,55.31
2018-11-23T04:38:05.165Z,55.41
2018-11-23T04:39:05.167Z,55.22
2018-11-23T04:40:05.174Z,53.05
2018-11-23T04:41:05.186Z,52.48
2018-11-23T04:42:05.191Z,52.48
2018-11-23T04:43:05.198Z,52.57
2018-11-23T04:44:05.204Z,52.95
2018-11-23T04:45:05.208Z,53.14
2018-11-23T04:46:05.216Z,53.23
2018-11-23T04:47:05.223Z,53.70
2018-11-23T04:48:05.230Z,53.52
2018-11-23T04:49:05.239Z,53.52
2018-11-23T04:50:05.244Z,53.05
2018-11-23T04:51:05.251Z,53.14
2018-11-23T04:52:05.257Z,53.23
2018-11-23T04:53:05.265Z,52.67
2018-11-23T04:54:05.271Z,52.29
2018-11-23T04:55:05.278Z,52.00
2018-11-23T04:56:05.286Z,52.00
2018-11-23T04:57:05.294Z,51.81
2018-11-23T04:58:05.298Z,52.38
2018-11-23T04:59:05.306Z,52.57
2018-11-23T05:00:05.314Z,52.48
2018-11-23T05:01:05.321Z,53.33
2018-11-23T05:02:05.328Z,52.76
2018-11-23T05:03:05.334Z,53.14
2018-11-23T05:04:05.342Z,53.61
2018-11-23T05:05:05.347Z,53.99
2018-11-23T05:06:05.354Z,53.80
2018-11-23T05:07:05.371Z,53.80
2018-11-23T05:08:05.374Z,53.05
2018-11-23T05:09:05.375Z,53.23
2018-11-23T05:10:05.384Z,53.70
2018-11-23T05:11:05.393Z,53.23
2018-11-23T05:12:05.395Z,53.52
2018-11-23T05:13:05.402Z,53.52
2018-11-23T05:14:05.410Z,53.05
2018-11-23T05:15:05.417Z,53.23
2018-11-23T05:16:05.428Z,52.67
2018-11-23T05:17:05.431Z,52.48
2018-11-23T05:18:05.436Z,52.67
2018-11-23T05:19:05.443Z,52.57
2018-11-23T05:20:05.455Z,53.23
2018-11-23T05:21:05.457Z,53.14
2018-11-23T05:22:05.463Z,53.61
2018-11-23T05:23:05.475Z,53.70
2018-11-23T05:24:05.484Z,53.80
2018-11-23T05:25:05.487Z,54.55
2018-11-23T05:26:05.499Z,54.74
2018-11-23T05:27:05.497Z,53.99
2018-11-23T05:28:05.504Z,53.89
2018-11-23T05:29:05.510Z,54.65
2018-11-23T05:30:05.519Z,55.03
2018-11-23T05:31:05.525Z,55.50
2018-11-23T05:32:05.530Z,56.07
2018-11-23T05:33:05.542Z,55.88
2018-11-23T05:34:05.547Z,55.79
2018-11-23T05:35:05.553Z,55.79
2018-11-23T05:36:05.562Z,56.07
2018-11-23T05:37:05.566Z,55.41
2018-11-23T05:38:05.573Z,55.50
2018-11-23T05:39:05.581Z,55.60
2018-11-23T05:40:05.585Z,55.69
2018-11-23T05:41:05.598Z,55.60
2018-11-23T05:42:05.600Z,55.41
2018-11-23T05:43:05.607Z,55.79
2018-11-23T05:44:05.615Z,55.60
2018-11-23T05:45:05.622Z,55.60
2018-11-23T05:46:05.633Z,55.50
2018-11-23T05:47:05.637Z,55.88
2018-11-23T05:48:05.641Z,55.88
2018-11-23T05:49:05.648Z,55.03
2018-11-23T05:50:05.657Z,55.50
2018-11-23T05:51:05.666Z,55.50
2018-11-23T05:52:05.716Z,54.74
2018-11-23T05:53:05.676Z,54.18
2018-11-23T05:54:05.686Z,53.99
2018-11-23T05:55:05.695Z,53.05
2018-11-23T05:56:05.698Z,54.08
2018-11-23T05:57:05.703Z,54.46
2018-11-23T05:58:05.711Z,54.46
2018-11-23T05:59:05.718Z,54.46
2018-11-23T06:00:05.728Z,54.27
2018-11-23T06:01:05.733Z,53.80
2018-11-23T06:02:05.739Z,53.99
2018-11-23T06:03:05.746Z,53.80
2018-11-23T06:04:05.758Z,53.89
2018-11-23T06:05:05.760Z,53.80
2018-11-23T06:06:05.769Z,53.89
2018-11-23T06:07:05.775Z,53.89
2018-11-23T06:08:05.779Z,53.99
2018-11-23T06:09:05.789Z,54.74
2018-11-23T06:10:05.795Z,54.65
2018-11-23T06:11:05.802Z,54.55
2018-11-23T06:12:05.814Z,54.55
2018-11-23T06:13:05.820Z,54.84
2018-11-23T06:14:05.825Z,54.46
2018-11-23T06:15:05.829Z,53.89
2018-11-23T06:16:05.838Z,53.89
2018-11-23T06:17:05.843Z,53.05
2018-11-23T06:18:05.850Z,52.38
2018-11-23T06:19:05.861Z,52.48
2018-11-23T06:20:05.866Z,52.95
2018-11-23T06:21:05.878Z,53.14
2018-11-23T06:22:05.881Z,53.61
2018-11-23T06:23:05.888Z,53.33
2018-11-23T06:24:05.895Z,53.05
2018-11-23T06:25:05.900Z,53.14
2018-11-23T06:26:05.908Z,53.23
2018-11-23T06:27:05.916Z,52.95
2018-11-23T06:28:05.920Z,52.95
2018-11-23T06:29:05.933Z,52.76
2018-11-23T06:30:05.937Z,53.61
2018-11-23T06:31:05.942Z,54.08
2018-11-23T06:32:05.949Z,53.89
2018-11-23T06:33:05.957Z,53.70
2018-11-23T06:34:05.964Z,52.95
2018-11-23T06:35:05.970Z,53.23
2018-11-23T06:36:05.977Z,52.76
2018-11-23T06:37:05.985Z,52.67
2018-11-23T06:38:05.995Z,52.76
2018-11-23T06:39:05.998Z,52.38
2018-11-23T06:40:06.006Z,52.29
2018-11-23T06:41:10.132Z,52.76
2018-11-23T06:42:06.018Z,52.76
2018-11-23T06:43:06.031Z,52.67
2018-11-23T06:44:06.032Z,52.10
2018-11-23T06:45:06.040Z,51.91
2018-11-23T06:46:06.048Z,51.91
2018-11-23T06:47:06.055Z,52.00
2018-11-23T06:48:06.064Z,52.29
2018-11-23T06:49:06.081Z,52.48
2018-11-23T06:50:06.082Z,52.48
2018-11-23T06:51:06.085Z,52.67
2018-11-23T06:52:06.091Z,53.05
2018-11-23T06:53:06.096Z,53.23
2018-11-23T06:54:06.105Z,53.05
2018-11-23T06:55:06.113Z,53.14
2018-11-23T06:56:06.121Z,52.48
2018-11-23T06:57:06.127Z,52.10
2018-11-23T06:58:06.171Z,52.00
2018-11-23T06:59:06.140Z,51.43
2018-11-23T07:00:06.148Z,51.15
2018-11-23T07:01:06.155Z,51.34
2018-11-23T07:02:06.166Z,51.53
2018-11-23T07:03:06.181Z,52.00
2018-11-23T07:04:06.175Z,51.91
2018-11-23T07:05:06.183Z,52.00
2018-11-23T07:06:06.192Z,51.81
2018-11-23T07:07:06.198Z,51.34
2018-11-23T07:08:06.204Z,51.06
2018-11-23T07:09:06.214Z,51.25
2018-11-23T07:10:06.220Z,50.68
2018-11-23T07:11:06.226Z,50.61
2018-11-23T07:12:06.236Z,50.14
2018-11-23T07:13:06.241Z,50.04
2018-11-23T07:14:06.249Z,50.23
2018-11-23T07:15:06.255Z,50.42
2018-11-23T07:16:06.263Z,50.90
2018-11-23T07:17:06.269Z,51.34
2018-11-23T07:18:06.276Z,51.18
2018-11-23T07:19:06.282Z,51.84
2018-11-23T07:20:06.295Z,51.46
2018-11-23T07:21:06.296Z,51.18
2018-11-23T07:22:06.305Z,51.75
2018-11-23T07:23:06.311Z,52.12
2018-11-23T07:24:06.319Z,52.60
2018-11-23T07:25:06.326Z,52.41
2018-11-23T07:26:06.331Z,52.41
2018-11-23T07:27:06.341Z,52.60
2018-11-23T07:28:06.347Z,52.41
2018-11-23T07:29:06.358Z,52.31
2018-11-23T07:30:06.362Z,52.41
2018-11-23T07:31:06.369Z,52.12
2018-11-23T07:32:06.388Z,52.12
2018-11-23T07:33:06.381Z,51.75
2018-11-23T07:34:06.391Z,51.65
2018-11-23T07:35:06.399Z,51.37
2018-11-23T07:36:06.404Z,50.90
2018-11-23T07:37:06.418Z,51.09
2018-11-23T07:38:06.420Z,50.61
2018-11-23T07:39:06.427Z,50.71
2018-11-23T07:40:06.435Z,50.61
2018-11-23T07:41:06.440Z,50.42
2018-11-23T07:42:06.447Z,50.23
2018-11-23T07:43:06.457Z,50.04
2018-11-23T07:44:06.462Z,49.85
2018-11-23T07:45:06.471Z,49.76
2018-11-23T07:46:06.477Z,50.14
2018-11-23T07:47:06.485Z,49.76
2018-11-23T07:48:06.495Z,49.19
2018-11-23T07:49:06.501Z,49.29
2018-11-23T07:50:06.506Z,50.14
2018-11-23T07:51:06.519Z,50.71
2018-11-23T07:52:06.523Z,50.99
2018-11-23T07:53:06.530Z,51.56
2018-11-23T07:54:06.536Z,50.42
2018-11-23T07:55:06.546Z,50.04
2018-11-23T07:56:06.550Z,50.80
2018-11-23T07:57:06.563Z,50.61
2018-11-23T07:58:06.569Z,50.99
2018-11-23T07:59:06.575Z,50.80
2018-11-23T08:00:06.593Z,51.46
2018-11-23T08:01:06.591Z,51.37
2018-11-23T08:02:06.597Z,51.09
2018-11-23T08:03:06.603Z,51.37
2018-11-23T08:04:06.609Z,51.84
2018-11-23T08:05:06.617Z,52.03
2018-11-23T08:06:06.628Z,52.03
2018-11-23T08:07:06.637Z,51.93
2018-11-23T08:08:06.642Z,52.03
2018-11-23T08:09:06.648Z,51.75
2018-11-23T08:10:06.659Z,52.12
2018-11-23T08:11:06.665Z,52.03
2018-11-23T08:12:06.673Z,52.12
2018-11-23T08:13:06.680Z,51.37
2018-11-23T08:14:06.693Z,51.56
2018-11-23T08:15:06.697Z,51.09
2018-11-23T08:16:06.702Z,50.61
2018-11-23T08:17:06.713Z,50.99
2018-11-23T08:18:06.720Z,50.80
2018-11-23T08:19:06.729Z,50.14
2018-11-23T08:20:06.736Z,49.48
2018-11-23T08:21:06.741Z,50.04
2018-11-23T08:22:06.749Z,49.85
2018-11-23T08:23:06.756Z,50.71
2018-11-23T08:24:06.764Z,49.85
2018-11-23T08:25:06.772Z,49.95
2018-11-23T08:26:06.782Z,49.79
2018-11-23T08:27:06.789Z,49.85
2018-11-23T08:28:06.793Z,50.26
2018-11-23T08:29:06.802Z,50.61
2018-11-23T08:30:06.811Z,50.54
2018-11-23T08:31:06.825Z,50.63
2018-11-23T08:32:06.827Z,51.11
2018-11-23T08:33:06.834Z,51.30
2018-11-23T08:34:06.843Z,51.96
2018-11-23T08:35:06.864Z,51.39
2018-11-23T08:36:06.857Z,51.11
2018-11-23T08:37:06.864Z,51.68
2018-11-23T08:38:06.872Z,52.06
2018-11-23T08:39:06.881Z,52.72
2018-11-23T08:40:06.891Z,53.28
2018-11-23T08:41:06.898Z,52.53
2018-11-23T08:42:06.904Z,52.06
2018-11-23T08:43:06.915Z,51.96
2018-11-23T08:44:06.923Z,51.96
2018-11-23T08:45:06.933Z,52.34
2018-11-23T08:46:06.935Z,52.53
2018-11-23T08:47:06.942Z,51.96
2018-11-23T08:48:06.954Z,51.49
2018-11-23T08:49:06.958Z,51.20
2018-11-23T08:50:06.969Z,50.82
2018-11-23T08:51:06.973Z,50.92
2018-11-23T08:52:06.983Z,51.11
2018-11-23T08:53:06.991Z,51.49
2018-11-23T08:54:07.000Z,51.68
2018-11-23T08:55:07.008Z,51.11
2018-11-23T08:56:07.013Z,51.58
2018-11-23T08:57:07.023Z,51.20
2018-11-23T08:58:07.029Z,52.34
2018-11-23T08:59:07.039Z,53.09
2018-11-23T09:00:07.045Z,52.53
2018-11-23T09:01:07.052Z,51.96
2018-11-23T09:02:07.063Z,52.15
2018-11-23T09:03:07.071Z,52.53
2018-11-23T09:04:07.083Z,52.34
2018-11-23T09:05:07.085Z,52.53
2018-11-23T09:06:07.093Z,53.09
2018-11-23T09:07:07.102Z,53.09
2018-11-23T09:08:07.108Z,53.19
2018-11-23T09:09:07.116Z,53.57
2018-11-23T09:10:07.127Z,53.66
2018-11-23T09:11:07.133Z,53.38
2018-11-23T09:12:07.144Z,53.47
2018-11-23T09:13:07.153Z,53.09
2018-11-23T09:14:07.165Z,53.00
2018-11-23T09:15:07.164Z,52.81
2018-11-23T09:16:07.182Z,52.62
2018-11-23T09:17:07.180Z,51.68
2018-11-23T09:18:07.220Z,51.11
2018-11-23T09:19:07.197Z,51.77
2018-11-23T09:20:07.205Z,51.87
2018-11-23T09:21:07.217Z,51.11
2018-11-23T09:22:07.225Z,51.20
2018-11-23T09:23:07.230Z,50.54
2018-11-23T09:24:07.239Z,51.68
2018-11-23T09:25:07.244Z,51.11
2018-11-23T09:26:07.258Z,51.96
2018-11-23T09:27:07.266Z,52.44
2018-11-23T09:28:07.272Z,52.81
2018-11-23T09:29:07.277Z,53.00
2018-11-23T09:30:07.288Z,51.77
2018-11-23T09:31:07.295Z,51.20
2018-11-23T09:32:07.306Z,50.16
2018-11-23T09:33:07.311Z,49.22
2018-11-23T09:34:07.317Z,48.55
2018-11-23T09:35:07.327Z,49.31
2018-11-23T09:36:07.334Z,50.07
2018-11-23T09:37:07.342Z,50.73
2018-11-23T09:38:07.351Z,51.30
2018-11-23T09:39:07.360Z,50.73
2018-11-23T09:40:07.368Z,49.60
2018-11-23T09:41:07.374Z,49.69
2018-11-23T09:42:07.384Z,50.07
2018-11-23T09:43:07.393Z,49.98
2018-11-23T09:44:07.399Z,50.16
2018-11-23T09:45:07.409Z,50.73
2018-11-23T09:46:07.420Z,51.20
2018-11-23T09:47:10.138Z,50.92
2018-11-23T09:48:07.435Z,50.47
2018-11-23T09:49:07.439Z,49.88
2018-11-23T09:50:07.453Z,49.31
2018-11-23T09:51:07.456Z,49.12
2018-11-23T09:52:07.466Z,49.60
2018-11-23T09:53:07.475Z,49.60
2018-11-23T09:54:07.484Z,49.79
2018-11-23T09:55:07.490Z,50.63
2018-11-23T09:56:07.498Z,50.73
2018-11-23T09:57:07.504Z,50.92
2018-11-23T09:58:07.513Z,51.01
2018-11-23T09:59:07.525Z,50.45
2018-11-23T10:00:07.530Z,50.07
2018-11-23T10:02:07.546Z,50.35
2018-11-23T10:03:07.556Z,51.11
2018-11-23T10:04:07.562Z,51.01
2018-11-23T10:05:07.652Z,51.30
2018-11-23T10:06:07.580Z,51.58
2018-11-23T10:07:07.587Z,50.82
2018-11-23T10:08:07.594Z,50.16
2018-11-23T10:09:07.604Z,49.41
2018-11-23T10:10:07.613Z,48.84
2018-11-23T10:11:07.620Z,49.79
2018-11-23T10:12:07.631Z,50.35
2018-11-23T10:13:07.636Z,49.98
2018-11-23T10:14:07.645Z,50.54
2018-11-23T10:15:07.651Z,51.01
2018-11-23T10:16:07.658Z,51.20
2018-11-23T10:17:07.668Z,50.63
2018-11-23T10:18:07.676Z,50.82
2018-11-23T10:19:07.687Z,51.01
2018-11-23T10:20:07.697Z,51.70
2018-11-23T10:21:07.700Z,50.76
2018-11-23T10:22:07.709Z,50.38
2018-11-23T10:23:07.720Z,49.71
2018-11-23T10:24:07.724Z,49.24
2018-11-23T10:25:07.733Z,48.84
2018-11-23T10:26:07.744Z,49.03
2018-11-23T10:27:07.753Z,48.39
2018-11-23T10:28:07.781Z,48.46
2018-11-23T10:29:07.765Z,48.27
2018-11-23T10:30:07.773Z,48.36
2018-11-23T10:31:07.783Z,49.22
2018-11-23T10:32:07.789Z,49.79
2018-11-23T10:33:07.800Z,50.16
2018-11-23T10:34:07.807Z,50.45
2018-11-23T10:35:07.818Z,50.63
2018-11-23T10:36:07.823Z,50.54
2018-11-23T10:37:07.834Z,50.35
2018-11-23T10:38:07.840Z,50.63
2018-11-23T10:39:07.845Z,50.26
2018-11-23T10:40:07.878Z,50.07
2018-11-23T10:41:07.862Z,49.69
2018-11-23T10:42:07.870Z,50.00
2018-11-23T10:43:07.881Z,49.52
2018-11-23T10:44:07.889Z,49.33
2018-11-23T10:45:07.896Z,48.96
2018-11-23T10:46:07.908Z,48.39
2018-11-23T10:47:07.914Z,47.82
2018-11-23T10:48:07.919Z,47.53
2018-11-23T10:49:07.932Z,47.34
2018-11-23T10:50:07.937Z,47.63
2018-11-23T10:51:07.946Z,47.82
2018-11-23T10:52:07.950Z,46.97
2018-11-23T10:53:07.965Z,46.78
2018-11-23T10:54:07.968Z,46.78
2018-11-23T10:55:07.975Z,45.55
2018-11-23T10:56:07.985Z,46.02
2018-11-23T10:57:07.995Z,46.50
2018-11-23T10:58:08.003Z,45.64
2018-11-23T10:59:08.012Z,45.72
2018-11-23T11:00:08.016Z,47.04
2018-11-23T11:01:08.027Z,46.47
2018-11-23T11:02:08.037Z,46.66
2018-11-23T11:03:08.041Z,47.34
2018-11-23T11:04:08.049Z,46.88
2018-11-23T11:05:08.057Z,47.72
2018-11-23T11:06:08.067Z,47.91
2018-11-23T11:07:08.075Z,48.58
2018-11-23T11:08:08.081Z,49.15
2018-11-23T11:09:08.093Z,48.96
2018-11-23T11:10:08.098Z,49.52
2018-11-23T11:11:08.250Z,49.71
2018-11-23T11:12:08.116Z,48.49
2018-11-23T11:13:08.124Z,47.06
2018-11-23T11:14:08.129Z,47.72
2018-11-23T11:15:08.140Z,47.06
2018-11-23T11:16:08.145Z,47.16
2018-11-23T11:17:08.157Z,47.80
2018-11-23T11:18:08.163Z,48.86
2018-11-23T11:19:08.190Z,48.49
2018-11-23T11:20:08.180Z,47.72
2018-11-23T11:21:08.189Z,47.72
2018-11-23T11:22:08.195Z,47.91
2018-11-23T11:23:08.208Z,47.25
2018-11-23T11:24:08.215Z,47.44
2018-11-23T11:25:08.223Z,47.06
2018-11-23T11:26:08.229Z,46.78
2018-11-23T11:27:08.239Z,46.21
2018-11-23T11:28:08.245Z,46.31
2018-11-23T11:29:08.256Z,45.45
2018-11-23T11:30:08.266Z,45.83
2018-11-23T11:31:08.273Z,46.31
2018-11-23T11:32:08.283Z,47.16
2018-11-23T11:33:08.291Z,47.44
2018-11-23T11:34:08.295Z,48.10
2018-11-23T11:35:08.305Z,48.39
2018-11-23T11:36:08.321Z,48.58
2018-11-23T11:37:08.327Z,48.49
2018-11-23T11:38:08.330Z,48.39
2018-11-23T11:39:08.340Z,48.29
2018-11-23T11:40:08.352Z,49.15
2018-11-23T11:41:08.356Z,49.15
2018-11-23T11:42:08.366Z,49.62
2018-11-23T11:43:08.374Z,50.38
2018-11-23T11:44:08.388Z,49.71
2018-11-23T11:45:08.393Z,49.24
2018-11-23T11:46:08.397Z,48.39
2018-11-23T11:47:08.409Z,48.20
2018-11-23T11:48:08.415Z,47.53
2018-11-23T11:49:08.426Z,48.18
2018-11-23T11:50:08.430Z,48.46
2018-11-23T11:51:08.441Z,48.84
2018-11-23T11:52:08.450Z,49.05
2018-11-23T11:53:08.456Z,48.86
2018-11-23T11:54:08.466Z,49.05
2018-11-23T11:55:08.474Z,49.24
2018-11-23T11:56:08.481Z,48.86
2018-11-23T11:57:08.490Z,48.68
2018-11-23T11:58:08.499Z,48.68
2018-11-23T11:59:08.506Z,47.91
2018-11-23T12:00:08.516Z,47.91
2018-11-23T12:01:08.524Z,47.44
2018-11-23T12:02:10.298Z,47.82
2018-11-23T12:03:08.541Z,48.01
2018-11-23T12:04:08.549Z,48.68
2018-11-23T12:05:08.557Z,48.39
2018-11-23T12:06:08.570Z,48.86
2018-11-23T12:07:08.572Z,48.77
2018-11-23T12:08:08.584Z,48.77
2018-11-23T12:09:08.592Z,48.49
2018-11-23T12:10:08.607Z,48.20
2018-11-23T12:11:08.611Z,47.25
2018-11-23T12:12:08.617Z,46.40
2018-11-23T12:13:08.626Z,46.40
2018-11-23T12:14:08.636Z,46.88
2018-11-23T12:15:08.644Z,47.44
2018-11-23T12:16:08.653Z,47.63
2018-11-23T12:17:08.663Z,47.63
2018-11-23T12:18:08.673Z,47.25
2018-11-23T12:19:08.679Z,46.97
2018-11-23T12:20:08.688Z,47.53
2018-11-23T12:21:08.694Z,48.01
2018-11-23T12:22:08.703Z,47.63
2018-11-23T12:23:08.712Z,47.16
2018-11-23T12:24:08.721Z,46.12
2018-11-23T12:25:08.733Z,46.59
2018-11-23T12:26:08.742Z,47.25
2018-11-23T12:27:08.748Z,47.91
2018-11-23T12:28:08.760Z,48.20
2018-11-23T12:29:08.764Z,48.10
2018-11-23T12:30:08.785Z,47.82
2018-11-23T12:31:08.784Z,48.68
2018-11-23T12:32:08.791Z,48.58
2018-11-23T12:33:08.799Z,48.77
2018-11-23T12:34:08.808Z,48.49
2018-11-23T12:35:08.819Z,47.91
2018-11-23T12:36:08.823Z,47.82
2018-11-23T12:37:08.834Z,47.53
2018-11-23T12:38:08.843Z,47.63
2018-11-23T12:39:08.851Z,47.82
2018-11-23T12:40:08.860Z,47.63
2018-11-23T12:41:08.869Z,47.25
2018-11-23T12:42:08.878Z,46.88
2018-11-23T12:43:08.892Z,46.69
2018-11-23T12:44:08.901Z,45.36
2018-11-23T12:45:08.905Z,45.07
2018-11-23T12:46:08.913Z,44.89
2018-11-23T12:47:08.927Z,45.26
2018-11-23T12:48:08.930Z,45.55
2018-11-23T12:49:08.940Z,47.63
2018-11-23T12:50:08.950Z,48.58
2018-11-23T12:51:08.959Z,49.81
2018-11-23T12:52:08.966Z,50.38
2018-11-23T12:53:08.973Z,50.09